Time;durP1;ratioP1;P1;durP2;ratioP2;P2;SDS_P1;SDS_P2;PMS_P1;PMS_P2;Temp;Humidity;BMP_temperature;BMP_pressure;BME280_temperature;BME280_humidity;BME280_pressure;Samples;Min_cycle;Max_cycle;Signal;HPM_P1;HPM_P2
2020/12/17 00:00:25;;;;;;;1.02;0.28;;;;;;;-0.80;100.00;101919.04;1697373;83;21194;-54
2020/12/17 00:02:52;;;;;;;0.00;0.00;;;;;;;-0.78;100.00;101912.17;1720816;83;21123;-54
2020/12/17 00:05:20;;;;;;;0.20;0.20;;;;;;;-0.78;100.00;101924.25;1750893;81;21122;-54
2020/12/17 00:07:47;;;;;;;0.25;0.25;;;;;;;-0.78;100.00;101918.89;1750821;81;21127;-54
2020/12/17 00:10:15;;;;;;;0.80;0.20;;;;;;;-0.78;100.00;101921.06;1709859;83;20977;-54
2020/12/17 00:12:44;;;;;;;0.05;0.05;;;;;;;-0.76;100.00;101914.19;1750596;81;21509;-54
2020/12/17 00:15:15;;;;;;;0.00;0.00;;;;;;;-0.76;100.00;101919.56;1739073;81;21228;-54
2020/12/17 00:17:51;;;;;;;0.13;0.13;;;;;;;-0.75;100.00;101919.88;1706368;83;21193;-54
2020/12/17 00:20:20;;;;;;;1.25;0.78;;;;;;;-0.77;100.00;101920.55;1702321;83;21126;-54
2020/12/17 00:22:48;;;;;;;0.30;0.30;;;;;;;-0.75;100.00;101923.91;1691131;83;21127;-54
2020/12/17 00:25:17;;;;;;;0.20;0.20;;;;;;;-0.74;100.00;101921.55;1695337;84;21169;-54
2020/12/17 00:27:46;;;;;;;0.00;0.00;;;;;;;-0.75;100.00;101921.23;1695589;83;21154;-54
2020/12/17 00:30:15;;;;;;;0.42;0.40;;;;;;;-0.75;100.00;101921.23;1695374;84;21210;-54
2020/12/17 00:32:42;;;;;;;0.00;0.00;;;;;;;-0.75;100.00;101922.56;1707633;82;21127;-54
2020/12/17 00:35:10;;;;;;;1.07;0.88;;;;;;;-0.74;100.00;101920.20;1732741;82;21122;-54
2020/12/17 00:37:38;;;;;;;0.00;0.00;;;;;;;-0.75;100.00;101923.40;1732734;82;21129;-54
2020/12/17 00:40:10;;;;;;;0.13;0.13;;;;;;;-0.74;100.00;101932.28;1731972;82;21027;-54
2020/12/17 00:42:44;;;;;;;0.00;0.00;;;;;;;-0.75;100.00;101926.59;1724406;81;21114;-54
2020/12/17 00:45:13;;;;;;;0.15;0.15;;;;;;;-0.74;100.00;101922.41;1695181;84;21131;-54
2020/12/17 00:47:42;;;;;;;0.72;0.72;;;;;;;-0.73;100.00;101925.92;1722218;81;21126;-54
2020/12/17 00:50:10;;;;;;;0.93;0.93;;;;;;;-0.73;100.00;101914.68;1710576;82;21566;-54
2020/12/17 00:52:39;;;;;;;0.33;0.33;;;;;;;-0.71;100.00;101915.86;1690526;84;21173;-54
2020/12/17 00:55:07;;;;;;;0.00;0.00;;;;;;;-0.71;100.00;101910.49;1706182;84;21149;-54
2020/12/17 00:57:34;;;;;;;1.42;1.32;;;;;;;-0.70;100.00;101906.79;1706311;82;21579;-54
2020/12/17 01:00:07;;;;;;;0.10;0.10;;;;;;;-0.70;100.00;101905.45;1705997;84;21655;-54
2020/12/17 01:02:35;;;;;;;0.95;0.47;;;;;;;-0.70;100.00;101901.42;1710778;82;21154;-54
2020/12/17 01:05:05;;;;;;;0.33;0.20;;;;;;;-0.69;100.00;101905.80;1710425;83;21219;-54
2020/12/17 01:07:34;;;;;;;0.00;0.00;;;;;;;-0.68;100.00;101903.44;1712405;82;21421;-54
2020/12/17 01:10:02;;;;;;;0.55;0.55;;;;;;;-0.68;100.00;101906.12;1710731;82;21161;-54
2020/12/17 01:12:29;;;;;;;0.00;0.00;;;;;;;-0.69;100.00;101907.97;1698249;83;21570;-54
2020/12/17 01:14:57;;;;;;;0.00;0.00;;;;;;;-0.69;100.00;101905.29;1701415;83;21154;-54
2020/12/17 01:17:24;;;;;;;0.00;0.00;;;;;;;-0.68;100.00;101898.90;1706797;84;21164;-55
2020/12/17 01:19:51;;;;;;;0.00;0.00;;;;;;;-0.67;100.00;101901.07;1696578;84;21170;-56
2020/12/17 01:22:19;;;;;;;0.30;0.30;;;;;;;-0.68;100.00;101898.06;1699879;84;21134;-56
2020/12/17 01:24:46;;;;;;;0.72;0.57;;;;;;;-0.69;100.00;101895.89;1663072;85;21605;-56
2020/12/17 01:27:14;;;;;;;0.00;0.00;;;;;;;-0.67;100.00;101894.36;1684832;84;21199;-56
2020/12/17 01:29:43;;;;;;;0.30;0.30;;;;;;;-0.66;100.00;101898.74;1706647;84;21199;-57
2020/12/17 01:32:10;;;;;;;0.00;0.00;;;;;;;-0.65;100.00;101898.55;1694419;84;21502;-56
2020/12/17 01:34:38;;;;;;;0.10;0.10;;;;;;;-0.64;100.00;101898.08;1704822;84;21171;-55
2020/12/17 01:37:07;;;;;;;0.03;0.03;;;;;;;-0.62;100.00;101896.03;1696491;84;21216;-56
2020/12/17 01:39:34;;;;;;;0.00;0.00;;;;;;;-0.61;100.00;101899.06;1735436;82;21156;-56
2020/12/17 01:42:02;;;;;;;0.17;0.17;;;;;;;-0.60;100.00;101898.05;1710169;82;21193;-55
2020/12/17 01:44:29;;;;;;;0.00;0.00;;;;;;;-0.60;100.00;101897.22;1735313;82;21146;-55
2020/12/17 01:46:57;;;;;;;0.10;0.10;;;;;;;-0.62;100.00;101896.03;1742566;81;21138;-55
2020/12/17 01:49:26;;;;;;;0.00;0.00;;;;;;;-0.60;100.00;101901.24;1763886;79;21157;-56
2020/12/17 01:51:53;;;;;;;0.10;0.10;;;;;;;-0.60;100.00;101895.36;1793760;79;21185;-56
2020/12/17 01:54:22;;;;;;;0.30;0.30;;;;;;;-0.59;100.00;101889.48;1759432;81;21138;-55
2020/12/17 01:56:57;;;;;;;0.00;0.00;;;;;;;-0.59;100.00;101890.34;1738471;82;21145;-55
2020/12/17 01:59:25;;;;;;;0.08;0.08;;;;;;;-0.60;100.00;101880.59;1723748;82;21133;-55
2020/12/17 02:01:53;;;;;;;0.10;0.10;;;;;;;-0.60;100.00;101873.88;1729061;82;21546;-56
2020/12/17 02:04:24;;;;;;;0.10;0.10;;;;;;;-0.59;100.00;101875.58;1712328;82;21149;-55
2020/12/17 02:06:51;;;;;;;0.00;0.00;;;;;;;-0.58;100.00;101870.52;1729010;82;21590;-55
2020/12/17 02:09:20;;;;;;;0.60;0.53;;;;;;;-0.59;100.00;101864.84;1729195;82;21138;-55
2020/12/17 02:11:56;;;;;;;0.40;0.40;;;;;;;-0.59;100.00;101860.81;1747801;81;21156;-55
2020/12/17 02:14:24;;;;;;;0.30;0.20;;;;;;;-0.59;100.00;101866.18;1759197;81;21418;-55
2020/12/17 02:16:52;;;;;;;0.00;0.00;;;;;;;-0.59;100.00;101863.97;1759511;81;21150;-55
2020/12/17 02:19:20;;;;;;;0.10;0.10;;;;;;;-0.59;100.00;101865.31;1759392;81;21625;-55
2020/12/17 02:21:48;;;;;;;0.10;0.10;;;;;;;-0.59;100.00;101874.23;1759298;81;21185;-56
2020/12/17 02:24:24;;;;;;;0.17;0.17;;;;;;;-0.58;100.00;101873.21;1759335;81;21166;-55
2020/12/17 02:26:52;;;;;;;0.10;0.10;;;;;;;-0.58;100.00;101869.19;1759149;81;21146;-55
2020/12/17 02:29:20;;;;;;;0.00;0.00;;;;;;;-0.59;100.00;101872.89;1747079;81;21162;-55
2020/12/17 02:31:47;;;;;;;0.00;0.00;;;;;;;-0.58;100.00;101883.12;1729058;82;21162;-56
2020/12/17 02:34:15;;;;;;;0.00;0.00;;;;;;;-0.57;100.00;101877.59;1729232;82;21501;-55
2020/12/17 02:36:43;;;;;;;0.00;0.00;;;;;;;-0.57;100.00;101881.63;1734792;81;21465;-55
2020/12/17 02:39:10;;;;;;;0.20;0.20;;;;;;;-0.56;100.00;101876.56;1742137;81;21110;-55
2020/12/17 02:41:38;;;;;;;0.30;0.28;;;;;;;-0.55;100.00;101872.86;1739576;81;21150;-55
2020/12/17 02:44:06;;;;;;;0.23;0.23;;;;;;;-0.54;100.00;101873.73;1758406;81;21158;-55
2020/12/17 02:46:33;;;;;;;0.90;0.42;;;;;;;-0.53;100.00;101882.94;1759406;81;21434;-55
2020/12/17 02:49:01;;;;;;;0.00;0.00;;;;;;;-0.52;100.00;101881.94;1756314;81;21249;-55
2020/12/17 02:51:28;;;;;;;0.00;0.00;;;;;;;-0.50;100.00;101878.55;1729358;82;21433;-55
2020/12/17 02:53:56;;;;;;;0.00;0.00;;;;;;;-0.50;100.00;101877.72;1727686;82;21121;-55
2020/12/17 02:56:23;;;;;;;0.00;0.00;;;;;;;-0.51;100.00;101880.92;1727601;83;21149;-55
2020/12/17 02:58:51;;;;;;;0.00;0.00;;;;;;;-0.53;100.00;101874.05;1729610;82;21123;-55
2020/12/17 03:01:18;;;;;;;0.00;0.00;;;;;;;-0.52;100.00;101881.94;1729554;82;21161;-55
2020/12/17 03:03:46;;;;;;;0.00;0.00;;;;;;;-0.52;100.00;101877.91;1729594;82;21145;-55
2020/12/17 03:06:13;;;;;;;0.60;0.50;;;;;;;-0.51;100.00;101876.89;1729557;82;21158;-55
2020/12/17 03:08:40;;;;;;;0.08;0.08;;;;;;;-0.50;100.00;101873.19;1729669;82;21129;-55
2020/12/17 03:11:09;;;;;;;0.10;0.10;;;;;;;-0.51;100.00;101882.27;1729576;82;21141;-55
2020/12/17 03:13:36;;;;;;;0.20;0.20;;;;;;;-0.51;100.00;101871.52;1788958;80;21678;-55
2020/12/17 03:16:03;;;;;;;0.00;0.00;;;;;;;-0.50;100.00;101876.38;1776536;79;21572;-55
2020/12/17 03:18:31;;;;;;;0.10;0.10;;;;;;;-0.50;100.00;101875.03;1757932;81;21192;-55
2020/12/17 03:20:59;;;;;;;0.00;0.00;;;;;;;-0.49;100.00;101875.39;1738916;81;21148;-55
2020/12/17 03:23:26;;;;;;;0.00;0.00;;;;;;;-0.49;100.00;101866.82;1729654;82;21511;-55
2020/12/17 03:25:54;;;;;;;0.00;0.00;;;;;;;-0.50;100.00;101867.81;1729512;82;21245;-55
2020/12/17 03:28:22;;;;;;;0.00;0.00;;;;;;;-0.50;100.00;101866.47;1729630;82;21102;-55
2020/12/17 03:30:49;;;;;;;0.00;0.00;;;;;;;-0.48;100.00;101861.77;1729522;82;21162;-55
2020/12/17 03:33:17;;;;;;;1.45;0.40;;;;;;;-0.49;100.00;101856.08;1781526;80;21141;-55
2020/12/17 03:35:44;;;;;;;0.05;0.05;;;;;;;-0.49;100.00;101843.99;1788946;79;21165;-55
2020/12/17 03:38:12;;;;;;;0.00;0.00;;;;;;;-0.50;100.00;101841.47;1789116;79;21078;-55
2020/12/17 03:40:39;;;;;;;0.00;0.00;;;;;;;-0.52;100.00;101840.80;1733540;81;21177;-54
2020/12/17 03:43:07;;;;;;;0.00;0.00;;;;;;;-0.53;100.00;101849.37;1787370;80;21125;-55
2020/12/17 03:45:34;;;;;;;0.20;0.20;;;;;;;-0.54;100.00;101848.22;1785775;80;21141;-54
2020/12/17 03:48:02;;;;;;;0.50;0.50;;;;;;;-0.55;100.00;101849.20;1789932;80;21138;-55
2020/12/17 03:50:29;;;;;;;0.28;0.28;;;;;;;-0.55;100.00;101849.20;1791072;80;21599;-55
2020/12/17 03:52:56;;;;;;;0.00;0.00;;;;;;;-0.56;100.00;101851.58;1788435;80;21121;-55
2020/12/17 03:55:24;;;;;;;0.00;0.00;;;;;;;-0.58;100.00;101853.08;1790775;80;21133;-55
2020/12/17 03:57:51;;;;;;;0.10;0.10;;;;;;;-0.57;100.00;101856.11;1764231;80;21192;-54
2020/12/17 04:00:19;;;;;;;0.00;0.00;;;;;;;-0.57;100.00;101860.62;1759289;81;21117;-54
2020/12/17 04:02:47;;;;;;;0.10;0.10;;;;;;;-0.57;100.00;101863.30;1762036;80;21113;-54
2020/12/17 04:05:15;;;;;;;0.45;0.45;;;;;;;-0.57;100.00;101856.11;1759661;81;21115;-54
2020/12/17 04:07:43;;;;;;;0.10;0.10;;;;;;;-0.56;100.00;101856.43;1761809;80;21149;-54
2020/12/17 04:10:11;;;;;;;1.65;0.28;;;;;;;-0.57;100.00;101853.42;1765196;80;20995;-54
2020/12/17 04:12:38;;;;;;;0.82;0.70;;;;;;;-0.57;100.00;101848.05;1788611;80;21129;-54
2020/12/17 04:15:06;;;;;;;0.28;0.28;;;;;;;-0.58;100.00;101849.05;1790752;80;21149;-54
2020/12/17 04:17:33;;;;;;;0.00;0.00;;;;;;;-0.57;100.00;101847.19;1791093;80;21107;-54
2020/12/17 04:20:01;;;;;;;2.47;0.75;;;;;;;-0.58;100.00;101840.99;1785429;80;21125;-54
2020/12/17 04:22:28;;;;;;;0.23;0.23;;;;;;;-0.58;100.00;101849.05;1781166;80;21122;-54
2020/12/17 04:24:56;;;;;;;0.10;0.10;;;;;;;-0.58;100.00;101840.99;1791154;80;21126;-54
2020/12/17 04:27:23;;;;;;;0.30;0.30;;;;;;;-0.58;100.00;101846.36;1730975;81;21135;-54
2020/12/17 04:29:50;;;;;;;0.00;0.00;;;;;;;-0.58;100.00;101845.53;1695031;84;21125;-54
2020/12/17 04:32:18;;;;;;;0.00;0.00;;;;;;;-0.57;100.00;101850.73;1692447;84;21311;-54
2020/12/17 04:34:46;;;;;;;0.00;0.00;;;;;;;-0.57;100.00;101850.73;1736000;81;21830;-54
2020/12/17 04:37:14;;;;;;;0.10;0.10;;;;;;;-0.57;100.00;101849.88;1740300;81;21142;-54
2020/12/17 04:39:41;;;;;;;1.27;0.28;;;;;;;-0.58;100.00;101854.41;1693841;84;21131;-54
2020/12/17 04:42:09;;;;;;;0.00;0.00;;;;;;;-0.58;100.00;101859.78;1694677;83;21142;-54
2020/12/17 04:44:36;;;;;;;0.85;0.40;;;;;;;-0.57;100.00;101860.62;1701102;83;21141;-54
2020/12/17 04:47:05;;;;;;;0.33;0.33;;;;;;;-0.58;100.00;101867.01;1660817;84;21173;-54
2020/12/17 04:49:38;;;;;;;0.08;0.08;;;;;;;-0.58;100.00;101869.19;1723997;83;21169;-55
2020/12/17 04:52:05;;;;;;;0.00;0.00;;;;;;;-0.57;100.00;101874.05;1734464;81;21123;-54
2020/12/17 04:54:33;;;;;;;0.40;0.30;;;;;;;-0.58;100.00;101873.21;1738823;81;21569;-54
2020/12/17 04:57:12;;;;;;;0.00;0.00;;;;;;;-0.58;100.00;101873.21;1740112;82;21130;-54
2020/12/17 04:59:45;;;;;;;0.25;0.25;;;;;;;-0.58;100.00;101882.61;1741382;81;21015;-54
2020/12/17 05:02:19;;;;;;;0.00;0.00;;;;;;;-0.58;100.00;101878.58;1741810;82;21185;-55
2020/12/17 05:04:49;;;;;;;0.05;0.05;;;;;;;-0.58;100.00;101894.69;1741657;82;21193;-55
2020/12/17 05:07:23;;;;;;;0.40;0.40;;;;;;;-0.58;100.00;101889.83;1791182;80;21177;-54
2020/12/17 05:09:50;;;;;;;0.20;0.20;;;;;;;-0.58;100.00;101898.72;1778654;80;21224;-55
2020/12/17 05:12:19;;;;;;;0.45;0.45;;;;;;;-0.60;100.00;101899.39;1772900;80;21145;-55
2020/12/17 05:14:48;;;;;;;0.05;0.05;;;;;;;-0.59;100.00;101893.03;1765194;80;21484;-55
2020/12/17 05:17:17;;;;;;;1.75;0.70;;;;;;;-0.58;100.00;101897.38;1771898;80;21161;-55
2020/12/17 05:19:45;;;;;;;1.10;1.02;;;;;;;-0.57;100.00;101896.39;1760759;80;21129;-55
2020/12/17 05:22:17;;;;;;;0.00;0.00;;;;;;;-0.56;100.00;101900.73;1766445;80;21133;-54
2020/12/17 05:24:45;;;;;;;0.42;0.42;;;;;;;-0.57;100.00;101897.73;1785456;79;21186;-53
2020/12/17 05:27:14;;;;;;;0.00;0.00;;;;;;;-0.55;100.00;101910.45;1786928;80;21173;-53
2020/12/17 05:29:42;;;;;;;0.05;0.05;;;;;;;-0.53;100.00;101907.09;1763053;80;21109;-54
2020/12/17 05:32:10;;;;;;;0.10;0.10;;;;;;;-0.52;100.00;101914.16;1772894;80;21552;-54
2020/12/17 05:34:39;;;;;;;0.10;0.10;;;;;;;-0.54;100.00;101912.15;1768114;80;21690;-54
2020/12/17 05:37:06;;;;;;;0.00;0.00;;;;;;;-0.53;100.00;101915.16;1719605;83;21137;-54
2020/12/17 05:39:34;;;;;;;0.10;0.10;;;;;;;-0.53;100.00;101911.64;1720900;82;21682;-54
2020/12/17 05:42:02;;;;;;;0.00;0.00;;;;;;;-0.53;100.00;101919.19;1692172;82;21106;-54
2020/12/17 05:44:30;;;;;;;0.20;0.20;;;;;;;-0.52;100.00;101920.02;1742235;80;21137;-54
2020/12/17 05:46:57;;;;;;;0.30;0.30;;;;;;;-0.52;100.00;101928.94;1791236;80;21177;-54
2020/12/17 05:49:29;;;;;;;0.37;0.37;;;;;;;-0.53;100.00;101929.92;1791055;79;21562;-54
2020/12/17 05:52:21;;;;;;;0.00;0.00;;;;;;;-0.55;100.00;101929.25;1791713;80;21145;-54
2020/12/17 05:54:59;;;;;;;;;;;;;;;-0.55;100.00;101927.08;1771599;80;21114;-54
2020/12/17 05:57:27;;;;;;;0.00;0.00;;;;;;;-0.55;100.00;101923.88;1780002;80;20258;-54
2020/12/17 06:00:05;;;;;;;0.00;0.00;;;;;;;-0.55;100.00;101925.22;1781256;80;21137;-54
2020/12/17 06:02:35;;;;;;;0.33;0.33;;;;;;;-0.54;100.00;101930.11;1778828;80;21596;-54
2020/12/17 06:05:11;;;;;;;0.10;0.10;;;;;;;-0.53;100.00;101923.21;1760324;81;21118;-54
2020/12/17 06:07:48;;;;;;;0.72;0.25;;;;;;;-0.51;100.00;101934.63;1757305;81;21676;-54
2020/12/17 06:10:25;;;;;;;2.20;0.78;;;;;;;-0.50;100.00;101933.61;1757248;81;21135;-54
2020/12/17 06:12:56;;;;;;;0.20;0.20;;;;;;;-0.49;100.00;101931.78;1757322;81;21182;-54
2020/12/17 06:15:25;;;;;;;0.08;0.08;;;;;;;-0.48;100.00;101932.94;1781216;80;21028;-54
2020/12/17 06:17:54;;;;;;;0.10;0.10;;;;;;;-0.47;100.00;101940.00;1769767;80;21527;-54
2020/12/17 06:20:23;;;;;;;0.00;0.00;;;;;;;-0.47;100.00;101934.63;1760467;81;21101;-54
2020/12/17 06:22:55;;;;;;;0.00;0.00;;;;;;;-0.46;100.00;101934.95;1773233;80;21370;-54
2020/12/17 06:25:27;;;;;;;0.55;0.55;;;;;;;-0.45;100.00;101929.91;1783794;80;27619;-54
2020/12/17 06:27:55;;;;;;;;;;;;;;;-0.46;100.00;101931.44;1793792;80;21165;-54
2020/12/17 06:30:29;;;;;;;0.00;0.00;;;;;;;-0.46;100.00;101934.95;1762896;80;20302;-54
2020/12/17 06:33:03;;;;;;;0.00;0.00;;;;;;;-0.46;100.00;101936.30;1760581;80;21138;-54
2020/12/17 06:35:50;;;;;;;0.03;0.03;;;;;;;-0.47;100.00;101941.34;1760443;81;21114;-54
2020/12/17 06:38:24;;;;;;;0.35;0.35;;;;;;;-0.46;100.00;101947.04;1767772;80;21110;-54
2020/12/17 06:40:52;;;;;;;0.10;0.10;;;;;;;-0.45;100.00;101943.33;1791558;80;21118;-54
2020/12/17 06:43:36;;;;;;;0.10;0.10;;;;;;;-0.44;100.00;101944.20;1791528;80;34078;-54
2020/12/17 06:46:04;;;;;;;0.00;0.00;;;;;;;-0.44;100.00;101939.66;1789536;80;21129;-54
2020/12/17 06:48:38;;;;;;;0.10;0.10;;;;;;;-0.40;100.00;101941.99;1760170;81;21597;-54
2020/12/17 06:51:32;;;;;;;0.00;0.00;;;;;;;-0.40;100.00;101937.97;1760172;80;21141;-54
2020/12/17 06:54:03;;;;;;;0.35;0.35;;;;;;;-0.40;100.00;101944.68;1759704;81;21184;-54
2020/12/17 06:56:31;;;;;;;0.00;0.00;;;;;;;-0.38;100.00;101949.38;1761984;80;21134;-54
2020/12/17 06:59:20;;;;;;;0.00;0.00;;;;;;;-0.37;100.00;101949.70;1759618;81;21157;-54
2020/12/17 07:01:47;;;;;;;0.28;0.28;;;;;;;-0.35;100.00;101944.49;1738618;82;21141;-54
2020/12/17 07:04:39;;;;;;;0.08;0.08;;;;;;;-0.32;100.00;101950.03;1769914;80;21122;-54
2020/12/17 07:07:20;;;;;;;0.00;0.00;;;;;;;-0.30;100.00;101950.19;1759743;80;21197;-54
2020/12/17 07:09:50;;;;;;;0.00;0.00;;;;;;;-0.26;100.00;101952.05;1703440;84;21157;-54
2020/12/17 07:12:39;;;;;;;0.20;0.20;;;;;;;-0.25;100.00;101945.17;1722696;83;21490;-54
2020/12/17 07:15:30;;;;;;;0.35;0.35;;;;;;;-0.23;100.00;101947.16;1724424;83;21158;-54
2020/12/17 07:18:23;;;;;;;0.08;0.08;;;;;;;-0.21;100.00;101952.37;1724349;83;21596;-55
2020/12/17 07:21:04;;;;;;;0.00;0.00;;;;;;;-0.18;100.00;101946.64;1724349;83;21146;-54
2020/12/17 07:23:34;;;;;;;0.28;0.28;;;;;;;-0.16;100.00;101952.69;1721837;83;21105;-54
2020/12/17 07:26:07;;;;;;;0.05;0.05;;;;;;;-0.15;100.00;101953.52;1723506;83;21111;-54
2020/12/17 07:28:35;;;;;;;0.17;0.17;;;;;;;-0.13;100.00;101944.28;1722971;83;21122;-54
2020/12/17 07:31:02;;;;;;;0.00;0.00;;;;;;;-0.10;100.00;101945.30;1701908;83;21133;-54
2020/12/17 07:33:40;;;;;;;0.00;0.00;;;;;;;-0.08;100.00;101943.25;1703391;82;21141;-54
2020/12/17 07:36:09;;;;;;;0.00;0.00;;;;;;;-0.07;100.00;101944.95;1703241;82;21189;-54
2020/12/17 07:38:37;;;;;;;0.17;0.17;;;;;;;-0.04;100.00;101961.23;1709037;82;21145;-56
2020/12/17 07:41:22;;;;;;;0.10;0.10;;;;;;;-0.03;100.00;101965.58;1731775;82;21149;-55
2020/12/17 07:43:49;;;;;;;0.00;0.00;;;;;;;-0.02;100.00;101963.25;1705009;82;21177;-55
2020/12/17 07:46:39;;;;;;;0.10;0.10;;;;;;;0.01;100.00;101962.06;1732503;82;21177;-55
2020/12/17 07:49:30;;;;;;;0.23;0.23;;;;;;;0.02;100.00;101966.41;1732236;81;21129;-55
2020/12/17 07:51:58;;;;;;;0.20;0.20;;;;;;;0.03;100.00;101962.73;1732745;82;21158;-55
2020/12/17 07:54:26;;;;;;;0.10;0.10;;;;;;;0.06;100.00;101971.79;1732866;82;21463;-55
2020/12/17 07:57:00;;;;;;;0.00;0.00;;;;;;;0.09;100.00;101968.75;1732737;81;21434;-55
2020/12/17 07:59:27;;;;;;;1.22;0.50;;;;;;;0.10;100.00;101967.24;1730195;82;21479;-55
2020/12/17 08:02:03;;;;;;;0.42;0.42;;;;;;;0.14;100.00;101963.69;1732773;82;21195;-55
2020/12/17 08:04:29;;;;;;;1.35;0.35;;;;;;;0.17;100.00;101961.98;1732776;82;21117;-55
2020/12/17 08:06:57;;;;;;;1.20;0.75;;;;;;;0.21;100.00;101959.30;1724171;81;21114;-55
2020/12/17 08:09:24;;;;;;;0.20;0.20;;;;;;;0.24;100.00;101962.97;1703375;84;21149;-55
2020/12/17 08:11:55;;;;;;;0.20;0.20;;;;;;;0.28;100.00;101959.45;1703286;82;21422;-55
2020/12/17 08:14:23;;;;;;;0.47;0.25;;;;;;;0.30;100.00;101963.64;1703500;84;21142;-55
2020/12/17 08:16:53;;;;;;;2.05;0.75;;;;;;;0.33;100.00;101958.41;1703358;82;21560;-55
2020/12/17 08:19:20;;;;;;;0.37;0.37;;;;;;;0.35;100.00;101959.91;1722937;82;21118;-55
2020/12/17 08:21:48;;;;;;;0.93;0.30;;;;;;;0.37;100.00;101960.59;1705405;82;21149;-55
2020/12/17 08:24:16;;;;;;;0.33;0.33;;;;;;;0.40;100.00;101962.91;1651480;84;21126;-54
2020/12/17 08:26:44;;;;;;;0.15;0.15;;;;;;;0.45;100.00;101952.98;1704629;82;21157;-55
2020/12/17 08:29:11;;;;;;;0.37;0.33;;;;;;;0.49;100.00;101956.14;1719575;82;21433;-54
2020/12/17 08:31:39;;;;;;;0.40;0.40;;;;;;;0.51;100.00;101949.57;1730565;82;21118;-55
2020/12/17 08:34:07;;;;;;;0.15;0.15;;;;;;;0.54;100.00;101953.76;1726691;82;21417;-54
2020/12/17 08:36:37;;;;;;;0.13;0.13;;;;;;;0.57;100.00;101956.09;1678822;82;21146;-54
2020/12/17 08:39:12;;;;;;;0.65;0.30;;;;;;;0.58;100.00;101956.44;1732799;82;21472;-54
2020/12/17 08:41:54;;;;;;;0.15;0.15;;;;;;;0.59;100.00;101950.03;1731456;81;21141;-54
2020/12/17 08:44:29;;;;;;;0.00;0.00;;;;;;;0.62;100.00;101955.08;1703822;82;21130;-54
2020/12/17 08:46:59;;;;;;;0.05;0.05;;;;;;;0.64;100.00;101948.98;1703394;82;21133;-54
2020/12/17 08:49:28;;;;;;;0.20;0.20;;;;;;;0.67;100.00;101945.97;1696627;84;21539;-54
2020/12/17 08:51:55;;;;;;;0.08;0.08;;;;;;;0.73;100.00;101952.48;1673693;84;21138;-54
2020/12/17 08:54:35;;;;;;;0.05;0.05;;;;;;;0.75;100.00;101952.64;1705177;82;21626;-54
2020/12/17 08:57:08;;;;;;;0.03;0.03;;;;;;;0.81;100.00;101950.56;1711964;82;21130;-54
2020/12/17 08:59:36;;;;;;;0.00;0.00;;;;;;;0.86;100.00;101950.86;1732362;82;21158;-54
2020/12/17 09:02:03;;;;;;;0.35;0.35;;;;;;;0.91;100.00;101946.81;1730406;82;21602;-54
2020/12/17 09:04:31;;;;;;;0.17;0.17;;;;;;;0.95;100.00;101948.14;1730576;81;21110;-54
2020/12/17 09:07:00;;;;;;;0.10;0.10;;;;;;;0.96;100.00;101955.19;1726407;82;21615;-54
2020/12/17 09:09:29;;;;;;;0.28;0.28;;;;;;;0.97;100.00;101956.88;1716665;82;21577;-55
2020/12/17 09:11:59;;;;;;;0.00;0.00;;;;;;;0.95;100.00;101956.22;1718883;81;21568;-54
2020/12/17 09:14:29;;;;;;;1.47;0.62;;;;;;;0.94;100.00;101963.46;1720273;82;21180;-54
2020/12/17 09:17:16;;;;;;;0.55;0.37;;;;;;;0.94;100.00;101963.94;1732658;82;21149;-54
2020/12/17 09:19:45;;;;;;;0.00;0.00;;;;;;;0.94;100.00;101961.25;1732689;82;21550;-54
2020/12/17 09:22:14;;;;;;;0.00;0.00;;;;;;;0.94;100.00;101958.08;1731148;82;21390;-54
2020/12/17 09:24:50;;;;;;;0.00;0.00;;;;;;;0.95;100.00;101962.94;1732648;82;21442;-54
2020/12/17 09:27:28;;;;;;;0.08;0.08;;;;;;;0.97;100.00;101960.91;1704101;82;21525;-54
2020/12/17 09:30:09;;;;;;;0.45;0.45;;;;;;;1.00;100.00;101964.08;1729867;82;21172;-54
2020/12/17 09:32:59;;;;;;;0.10;0.10;;;;;;;1.03;100.00;101961.53;1732475;82;21177;-54
2020/12/17 09:35:35;;;;;;;0.10;0.10;;;;;;;1.05;100.00;101961.68;1721669;82;21141;-54
2020/12/17 09:38:08;;;;;;;0.10;0.10;;;;;;;1.06;100.00;101969.23;1711056;82;21460;-54
2020/12/17 09:40:45;;;;;;;0.00;0.00;;;;;;;1.10;100.00;101966.53;1860060;76;29035;-52
2020/12/17 09:43:16;;;;;;;0.13;0.13;;;;;;;1.05;100.00;101971.10;1808261;77;21103;-53
2020/12/17 09:45:46;;;;;;;0.00;0.00;;;;;;;1.05;100.00;101971.10;1844730;77;21106;-52
2020/12/17 09:48:23;;;;;;;0.08;0.08;;;;;;;1.04;100.00;101971.30;1813290;78;21127;-52
2020/12/17 09:51:09;;;;;;;0.03;0.03;;;;;;;1.02;100.00;101974.67;1823342;77;21151;-52
2020/12/17 09:53:41;;;;;;;0.00;0.00;;;;;;;1.01;100.00;101971.64;1835325;77;21257;-52
2020/12/17 09:56:10;;;;;;;0.37;0.37;;;;;;;1.03;100.00;101977.69;1808976;77;21127;-52
2020/12/17 09:58:44;;;;;;;0.00;0.00;;;;;;;1.04;100.00;101980.72;1767508;80;21281;-53
2020/12/17 10:01:13;;;;;;;0.00;0.00;;;;;;;1.04;100.00;101973.99;1744953;80;22075;-53
2020/12/17 10:03:40;;;;;;;0.15;0.15;;;;;;;1.07;100.00;101971.77;1766469;80;21187;-53
2020/12/17 10:06:08;;;;;;;0.17;0.10;;;;;;;1.10;100.00;101970.56;1792323;79;21124;-52
2020/12/17 10:08:35;;;;;;;1.45;0.40;;;;;;;1.14;100.00;101964.30;1808512;79;21134;-52
2020/12/17 10:11:06;;;;;;;0.40;0.40;;;;;;;1.15;100.00;101965.48;1791733;79;21056;-52
2020/12/17 10:13:35;;;;;;;0.55;0.55;;;;;;;1.16;100.00;101957.72;1796717;79;21561;-52
2020/12/17 10:16:03;;;;;;;0.00;0.00;;;;;;;1.19;100.00;101953.34;1808594;79;21135;-52
2020/12/17 10:18:30;;;;;;;0.00;0.00;;;;;;;1.22;100.00;101947.59;1795642;79;21103;-52
2020/12/17 10:20:58;;;;;;;0.15;0.15;;;;;;;1.25;100.00;101947.22;1796941;79;21120;-52
2020/12/17 10:23:26;;;;;;;0.42;0.42;;;;;;;1.26;100.00;101942.17;1786267;79;21590;-52
2020/12/17 10:25:53;;;;;;;0.55;0.55;;;;;;;1.27;100.00;101949.22;1804084;79;21262;-52
2020/12/17 10:28:20;;;;;;;0.10;0.10;;;;;;;1.31;100.00;101954.24;1798417;79;21089;-52
2020/12/17 10:30:48;;;;;;;0.10;0.10;;;;;;;1.31;100.00;101947.02;1786017;79;21407;-52
2020/12/17 10:33:15;;;;;;;0.10;0.10;;;;;;;1.34;100.00;101941.78;1782731;79;21115;-52
2020/12/17 10:35:43;;;;;;;0.57;0.57;;;;;;;1.36;100.00;101939.72;1809352;79;21103;-52
2020/12/17 10:38:10;;;;;;;0.00;0.00;;;;;;;1.38;100.00;101946.59;1760487;79;21120;-52
2020/12/17 10:40:38;;;;;;;0.55;0.55;;;;;;;1.41;100.00;101938.66;1796861;79;21165;-52
2020/12/17 10:43:05;;;;;;;0.00;0.00;;;;;;;1.40;100.00;101937.83;1794165;79;21118;-52
2020/12/17 10:45:33;;;;;;;0.20;0.20;;;;;;;1.41;100.00;101944.91;1793954;79;21431;-52
2020/12/17 10:48:00;;;;;;;0.00;0.00;;;;;;;1.43;100.00;101939.32;1794775;79;21636;-52
2020/12/17 10:50:28;;;;;;;0.35;0.10;;;;;;;1.44;100.00;101936.97;1772366;79;21126;-52
2020/12/17 10:52:55;;;;;;;0.10;0.10;;;;;;;1.43;100.00;101925.85;1762433;80;21162;-52
2020/12/17 10:55:23;;;;;;;1.25;0.72;;;;;;;1.44;100.00;101930.23;1791416;80;21173;-52
2020/12/17 10:57:50;;;;;;;0.20;0.20;;;;;;;1.43;100.00;101928.55;1790078;79;21122;-52
2020/12/17 11:00:18;;;;;;;0.28;0.28;;;;;;;1.43;100.00;101931.23;1762367;81;21199;-52
2020/12/17 11:02:45;;;;;;;0.33;0.30;;;;;;;1.43;100.00;101932.07;1749667;81;21559;-52
2020/12/17 11:05:13;;;;;;;0.20;0.20;;;;;;;1.44;100.00;101935.11;1795784;78;21116;-52
2020/12/17 11:07:40;;;;;;;1.65;0.85;;;;;;;1.43;100.00;101936.11;1752569;81;21143;-52
2020/12/17 11:10:09;;;;;;;0.00;0.00;;;;;;;1.39;100.00;101942.91;1771381;80;21118;-52
2020/12/17 11:12:37;;;;;;;0.70;0.30;;;;;;;1.37;100.00;101939.55;1787039;80;21179;-52
2020/12/17 11:15:04;;;;;;;0.90;0.78;;;;;;;1.36;100.00;101939.72;1774141;80;21210;-52
2020/12/17 11:17:32;;;;;;;0.10;0.10;;;;;;;1.35;100.00;101943.44;1765594;79;21143;-52
2020/12/17 11:20:00;;;;;;;0.20;0.20;;;;;;;1.34;100.00;101937.74;1772445;80;21120;-52
2020/12/17 11:22:27;;;;;;;0.30;0.30;;;;;;;1.33;100.00;101944.12;1769312;80;21131;-52
2020/12/17 11:24:55;;;;;;;0.95;0.95;;;;;;;1.32;100.00;101945.16;1759489;80;21158;-52
2020/12/17 11:27:22;;;;;;;0.30;0.30;;;;;;;1.31;100.00;101942.13;1785433;78;21190;-52
2020/12/17 11:29:49;;;;;;;0.55;0.55;;;;;;;1.28;100.00;101942.80;1785650;80;21405;-52
2020/12/17 11:32:20;;;;;;;0.17;0.17;;;;;;;1.29;100.00;101945.02;1785708;78;21363;-52